createdAt,value
2017-08-28T12:45:29.000Z,63.54
2017-08-28T12:46:42.397Z,62.99
2017-08-28T12:47:55.175Z,62.99
2017-08-28T12:49:09.098Z,63.28
2017-08-28T12:50:23.012Z,63.28
2017-08-28T12:51:36.380Z,62.6
2017-08-28T12:52:49.735Z,61.77
2017-08-28T12:54:02.549Z,60.31
2017-08-28T12:55:15.896Z,60.25
2017-08-28T12:56:29.603Z,60.35
2017-08-28T12:57:42.802Z,60.16
2017-08-28T12:58:56.661Z,61.22
2017-08-28T13:00:09.361Z,62.05
2017-08-28T13:01:22.068Z,61.77
2017-08-28T13:02:34.789Z,62.44
2017-08-28T13:03:48.125Z,61.38
2017-08-28T13:05:04.371Z,60.71
2017-08-28T13:06:17.106Z,61.09
2017-08-28T13:07:29.801Z,62.54
2017-08-28T13:08:42.472Z,63.67
2017-08-28T13:09:55.766Z,63.37
2017-08-28T13:11:09.090Z,61.86
2017-08-28T13:12:22.299Z,61.22
2017-08-28T13:13:36.138Z,61.12
2017-08-28T13:14:48.816Z,60.16
2017-08-28T13:16:02.014Z,62.47
2017-08-28T13:17:14.112Z,62.82
2017-08-28T13:18:27.914Z,63.7
2017-08-28T13:19:40.607Z,64.86
2017-08-28T13:20:53.800Z,62.63
2017-08-28T13:22:06.493Z,60.99
2017-08-28T13:23:19.679Z,61.09
2017-08-28T13:24:32.375Z,60.71
2017-08-28T13:25:45.097Z,61.99
2017-08-28T13:26:58.914Z,63.34
2017-08-28T13:28:11.601Z,63.31
2017-08-28T13:29:24.813Z,61.77
2017-08-28T13:30:37.502Z,60.93
2017-08-28T13:32:21.277Z,61.12
2017-08-28T13:33:35.075Z,61.12
2017-08-28T13:34:47.770Z,61.22
2017-08-28T13:36:01.547Z,60.93
2017-08-28T13:37:14.225Z,62.28
2017-08-28T13:38:26.929Z,62.57
2017-08-28T13:39:40.802Z,62.37
2017-08-28T13:40:53.002Z,60.96
2017-08-28T13:42:05.724Z,58.25
2017-08-28T13:43:18.971Z,58.45
2017-08-28T13:44:31.667Z,58.67
2017-08-28T13:45:43.825Z,58.18
2017-08-28T13:46:56.534Z,58.18
2017-08-28T13:48:09.778Z,57.7
2017-08-28T13:49:22.843Z,58.28
2017-08-28T13:50:36.585Z,58.18
2017-08-28T13:51:48.783Z,55.31
2017-08-28T13:53:01.487Z,51.86
2017-08-28T13:54:14.652Z,54.13
2017-08-28T13:55:27.869Z,53.64
2017-08-28T13:56:41.078Z,53.57
2017-08-28T13:57:53.796Z,53.89
2017-08-28T13:59:06.477Z,52.05
2017-08-28T14:00:19.169Z,50.52
2017-08-28T14:01:31.865Z,50.33
2017-08-28T14:02:45.653Z,48.3
2017-08-28T14:03:58.844Z,48.3
2017-08-28T14:05:11.532Z,48.59
2017-08-28T14:06:24.739Z,49.05
2017-08-28T14:07:37.939Z,47.89
2017-08-28T14:08:50.605Z,44.33
2017-08-28T14:10:03.309Z,45.66
2017-08-28T14:11:16.031Z,47.21
2017-08-28T14:12:29.206Z,46.63
2017-08-28T14:13:42.420Z,46.32
2017-08-28T14:14:54.617Z,45.66
2017-08-28T14:16:06.823Z,46.32
2017-08-28T14:17:19.009Z,46.22
2017-08-28T14:18:31.699Z,46.58
2017-08-28T14:19:44.924Z,47.84
2017-08-28T14:20:57.653Z,48.11
2017-08-28T14:22:10.873Z,48.21
2017-08-28T14:23:22.551Z,49.07
2017-08-28T14:24:35.762Z,49.17
2017-08-28T14:26:20.112Z,48.3
2017-08-28T14:27:33.318Z,48.32
2017-08-28T14:28:46.032Z,47.28
2017-08-28T14:29:58.186Z,46.05
2017-08-28T14:31:10.849Z,46.05
2017-08-28T14:32:23.523Z,45.59
2017-08-28T14:33:36.236Z,43.48
2017-08-28T14:34:48.418Z,43.96
2017-08-28T14:36:01.110Z,44.7
2017-08-28T14:37:13.795Z,44.23
2017-08-28T14:38:26.458Z,43.95
2017-08-28T14:39:38.654Z,43.75
2017-08-28T14:40:51.949Z,43.85
2017-08-28T14:42:04.117Z,43.46
2017-08-28T14:43:16.806Z,43.55
2017-08-28T14:44:29.995Z,43.77
2017-08-28T14:45:41.647Z,42.82
2017-08-28T14:46:54.891Z,42.14
2017-08-28T14:48:07.069Z,41.3
2017-08-28T14:49:19.743Z,42.07
2017-08-28T14:50:32.949Z,41.86
2017-08-28T14:51:45.668Z,43.04
2017-08-28T14:52:58.365Z,41.27
2017-08-28T14:54:10.555Z,41.58
2017-08-28T14:55:23.760Z,42.17
2017-08-28T14:56:36.471Z,41.58
2017-08-28T14:57:49.656Z,39.57
2017-08-28T14:59:01.856Z,39.37
2017-08-28T15:00:15.069Z,39.95
2017-08-28T15:01:28.305Z,39.11
2017-08-28T15:02:40.998Z,38.89
2017-08-28T15:03:53.176Z,37.76
2017-08-28T15:05:05.428Z,38.64
2017-08-28T15:06:18.140Z,38.73
2017-08-28T15:07:30.813Z,38.62
2017-08-28T15:08:43.014Z,38.23
2017-08-28T15:09:56.826Z,38.91
2017-08-28T15:11:08.994Z,38.23
2017-08-28T15:12:22.218Z,38.71
2017-08-28T15:13:35.419Z,38.06
2017-08-28T15:14:47.587Z,38.83
2017-08-28T15:16:00.911Z,38.64
2017-08-28T15:17:14.133Z,38.91
2017-08-28T15:18:26.883Z,38.06
2017-08-28T15:19:40.083Z,37.88
2017-08-28T15:20:53.293Z,37.1
2017-08-28T15:22:06.545Z,37.12
2017-08-28T15:23:18.730Z,36.26
2017-08-28T15:24:31.944Z,35.19
2017-08-28T15:25:45.145Z,35.11
2017-08-28T15:26:58.368Z,35.78
2017-08-28T15:28:11.618Z,36.15
2017-08-28T15:29:24.976Z,35.76
2017-08-28T15:30:37.654Z,35.58
2017-08-28T15:31:51.439Z,35
2017-08-28T15:33:04.650Z,34.63
2017-08-28T15:34:17.872Z,35.31
2017-08-28T15:35:30.045Z,34.63
2017-08-28T15:36:42.223Z,34.92
2017-08-28T15:37:54.391Z,35.88
2017-08-28T15:39:07.021Z,37.35
2017-08-28T15:40:19.721Z,37.45
2017-08-28T15:41:32.931Z,37.93
2017-08-28T15:42:45.583Z,37.35
2017-08-28T15:43:58.279Z,37.35
2017-08-28T15:45:11.495Z,37.35
2017-08-28T15:46:24.186Z,34.84
2017-08-28T15:47:36.884Z,36.69
2017-08-28T15:48:50.674Z,35.42
2017-08-28T15:50:02.824Z,35.03
2017-08-28T15:51:15.544Z,35.03
2017-08-28T15:52:29.367Z,34.68
2017-08-28T15:53:41.497Z,34.99
2017-08-28T15:54:54.734Z,35.06
2017-08-28T15:56:06.915Z,35.46
2017-08-28T15:57:19.624Z,34.99
2017-08-28T15:58:32.867Z,34.69
2017-08-28T15:59:46.214Z,34.22
2017-08-28T16:00:58.794Z,34.61
2017-08-28T16:02:11.984Z,34.79
2017-08-28T16:03:24.766Z,35.1
2017-08-28T16:04:36.969Z,34.99
2017-08-28T16:05:49.112Z,34.79
2017-08-28T16:07:02.448Z,33.64
2017-08-28T16:08:15.712Z,33.09
2017-08-28T16:09:28.905Z,32.03
2017-08-28T16:10:41.582Z,31.65
2017-08-28T16:11:53.226Z,32.73
2017-08-28T16:13:05.397Z,35.12
2017-08-28T16:14:18.646Z,37.39
2017-08-28T16:15:31.875Z,38.98
2017-08-28T16:16:44.069Z,38.98
2017-08-28T16:17:56.805Z,37.26
2017-08-28T16:19:09.489Z,34.86
2017-08-28T16:20:22.178Z,35.16
2017-08-28T16:21:35.401Z,34.5
2017-08-28T16:22:47.566Z,33.83
2017-08-28T16:24:00.797Z,33.34
2017-08-28T16:25:13.481Z,32.78
2017-08-28T16:26:26.198Z,32.79
2017-08-28T16:27:38.869Z,32.29
2017-08-28T16:28:50.538Z,32.99
2017-08-28T16:30:02.166Z,32.68
2017-08-28T16:31:14.345Z,33.17
2017-08-28T16:32:27.548Z,33.83
2017-08-28T16:33:39.325Z,34.99
2017-08-28T16:34:52.021Z,34.68
2017-08-28T16:36:04.187Z,34
2017-08-28T16:37:16.884Z,35.05
2017-08-28T16:38:29.013Z,35.25
2017-08-28T16:39:41.723Z,34.74
2017-08-28T16:40:53.913Z,34.76
2017-08-28T16:42:06.627Z,35.06
2017-08-28T16:43:19.284Z,33.31
2017-08-28T16:44:31.976Z,32.28
2017-08-28T16:45:45.199Z,32.19
2017-08-28T16:46:58.404Z,31.52
2017-08-28T16:48:11.107Z,30.66
2017-08-28T16:49:22.756Z,30.09
2017-08-28T16:50:36.008Z,29.41
2017-08-28T16:51:49.235Z,29.5
2017-08-28T16:53:01.931Z,28.43
2017-08-28T16:54:14.623Z,27.38
2017-08-28T16:55:27.295Z,26.33
2017-08-28T16:56:39.504Z,26.33
2017-08-28T16:57:51.689Z,27.1
2017-08-28T16:59:04.375Z,27.19
2017-08-28T17:00:18.148Z,27.87
2017-08-28T17:01:30.838Z,27.48
2017-08-28T17:02:43.533Z,26.32
2017-08-28T17:03:56.219Z,26.33
2017-08-28T17:05:09.439Z,26.9
2017-08-28T17:06:22.626Z,27.2
2017-08-28T17:08:05.984Z,27.2
2017-08-28T17:09:18.657Z,27.1
2017-08-28T17:10:31.845Z,29.24
2017-08-28T17:11:45.508Z,28.83
2017-08-28T17:12:58.704Z,27.77
2017-08-28T17:14:11.886Z,27.88
2017-08-28T17:15:24.614Z,28.09
2017-08-28T17:16:37.811Z,28.67
2017-08-28T17:17:50.468Z,28.36
2017-08-28T17:19:03.681Z,27.1
2017-08-28T17:20:16.939Z,28.67
2017-08-28T17:21:29.635Z,30.09
2017-08-28T17:22:42.330Z,30.65
2017-08-28T17:23:55.561Z,31.4
2017-08-28T17:25:08.839Z,32.28
2017-08-28T17:26:23.231Z,33.14
2017-08-28T17:27:36.432Z,32.75
2017-08-28T17:28:49.695Z,29.56
2017-08-28T17:30:02.902Z,28.72
2017-08-28T17:31:16.147Z,27.37
2017-08-28T17:32:28.769Z,26.81
2017-08-28T17:33:42.009Z,26.92
2017-08-28T17:34:54.196Z,26.42
2017-08-28T17:36:06.362Z,26.92
2017-08-28T17:37:19.624Z,27.01
2017-08-28T17:38:32.318Z,27.1
2017-08-28T17:39:44.894Z,28.36
2017-08-28T17:40:58.125Z,27.95
2017-08-28T17:42:10.820Z,27.95
2017-08-28T17:43:23.417Z,29.31
2017-08-28T17:44:35.604Z,30.57
2017-08-28T17:45:48.801Z,30.44
2017-08-28T17:47:00.969Z,29.56
2017-08-28T17:48:13.664Z,27.27
2017-08-28T17:49:26.972Z,25.74
2017-08-28T17:50:39.165Z,25.76
2017-08-28T17:51:51.862Z,25.95
2017-08-28T17:53:05.172Z,25.95
2017-08-28T17:54:17.870Z,24.79
2017-08-28T17:55:31.091Z,25.31
2017-08-28T17:56:43.798Z,25.21
2017-08-28T17:57:56.504Z,24.53
2017-08-28T17:59:09.173Z,24.05
2017-08-28T18:00:22.352Z,22.48
2017-08-28T18:01:35.014Z,23.46
2017-08-28T18:02:47.718Z,22.48
2017-08-28T18:04:00.410Z,21.8
2017-08-28T18:05:12.053Z,21.8
2017-08-28T18:06:25.907Z,21.62
2017-08-28T18:07:39.115Z,22.2
2017-08-28T18:08:50.757Z,23.56
2017-08-28T18:10:03.420Z,22.85
2017-08-28T18:11:15.099Z,23.35
2017-08-28T18:12:28.309Z,25.2
2017-08-28T18:13:41.601Z,24.86
2017-08-28T18:14:53.772Z,24.77
2017-08-28T18:16:06.466Z,24.11
2017-08-28T18:17:19.148Z,23.44
2017-08-28T18:18:32.343Z,22.96
2017-08-28T18:19:45.006Z,23.25
2017-08-28T18:20:57.217Z,23.74
2017-08-28T18:22:09.937Z,24.8
2017-08-28T18:23:23.170Z,24.66
2017-08-28T18:24:36.346Z,24.75
2017-08-28T18:25:48.540Z,25.16
2017-08-28T18:27:02.380Z,24.08
2017-08-28T18:28:15.601Z,23.31
2017-08-28T18:29:28.833Z,23.11
2017-08-28T18:30:42.071Z,22.91
2017-08-28T18:31:54.858Z,23
2017-08-28T18:33:08.086Z,23.49
2017-08-28T18:34:21.383Z,22.81
2017-08-28T18:35:33.574Z,22.24
2017-08-28T18:36:46.787Z,23.33
2017-08-28T18:37:59.494Z,23.41
2017-08-28T18:39:12.209Z,23.31
2017-08-28T18:40:24.887Z,22.34
2017-08-28T18:41:37.599Z,20.88
2017-08-28T18:42:50.278Z,22.35
2017-08-28T18:44:02.439Z,22.24
2017-08-28T18:45:15.129Z,22.34
2017-08-28T18:46:27.834Z,20.99
2017-08-28T18:47:40.502Z,21.78
2017-08-28T18:48:53.685Z,21.87
2017-08-28T18:50:06.881Z,22.25
2017-08-28T18:51:20.172Z,21.87
2017-08-28T18:52:33.421Z,23.63
2017-08-28T18:53:46.506Z,25.15
2017-08-28T18:54:59.167Z,25.15
2017-08-28T18:56:11.879Z,24.47
2017-08-28T18:57:25.067Z,24.97
2017-08-28T18:58:37.735Z,26.81
2017-08-28T18:59:50.962Z,27.58
2017-08-28T19:01:04.217Z,28.25
2017-08-28T19:02:17.435Z,27.76
2017-08-28T19:03:29.613Z,25.73
2017-08-28T19:04:42.280Z,26.83
2017-08-28T19:05:54.446Z,27.1
2017-08-28T19:07:07.114Z,28.34
2017-08-28T19:08:19.806Z,29.31
2017-08-28T19:09:33.087Z,29.61
2017-08-28T19:10:45.266Z,29.52
2017-08-28T19:11:57.919Z,29.34
2017-08-28T19:13:10.705Z,29.24
2017-08-28T19:14:23.396Z,30.69
2017-08-28T19:15:36.734Z,30.87
2017-08-28T19:16:49.408Z,30.76
2017-08-28T19:18:02.634Z,29.5
2017-08-28T19:19:15.812Z,30.58
2017-08-28T19:20:28.492Z,29.71
2017-08-28T19:21:40.147Z,29.63
2017-08-28T19:22:52.899Z,30.49
2017-08-28T19:24:05.592Z,30.69
2017-08-28T19:25:18.799Z,29.53
2017-08-28T19:26:30.979Z,29.55
2017-08-28T19:27:44.186Z,29.27
2017-08-28T19:28:56.365Z,30.13
2017-08-28T19:30:08.567Z,30.02
2017-08-28T19:31:21.282Z,30.71
2017-08-28T19:32:33.982Z,31.57
2017-08-28T19:33:46.715Z,32.63
2017-08-28T19:34:59.412Z,33.87
2017-08-28T19:36:12.698Z,34.73
2017-08-28T19:37:25.931Z,34.73
2017-08-28T19:38:38.669Z,35.22
2017-08-28T19:39:51.906Z,34.92
2017-08-28T19:41:05.119Z,33.87
2017-08-28T19:42:17.814Z,33.59
2017-08-28T19:43:29.974Z,34.97
2017-08-28T19:44:43.802Z,36.21
2017-08-28T19:45:57.582Z,37.55
2017-08-28T19:47:10.271Z,38.01
2017-08-28T19:48:23.472Z,38.4
2017-08-28T19:49:36.828Z,39.18
2017-08-28T19:50:48.473Z,40.23
2017-08-28T19:52:02.325Z,41.99
2017-08-28T19:53:13.972Z,41.19
2017-08-28T19:54:27.192Z,41.01
2017-08-28T19:55:40.498Z,41.81
2017-08-28T19:56:53.195Z,43.33
2017-08-28T19:58:05.892Z,44.76
2017-08-28T19:59:19.686Z,46.88
2017-08-28T20:00:32.928Z,48.3
2017-08-28T20:01:46.145Z,49.63
2017-08-28T20:02:59.358Z,51.14
2017-08-28T20:04:12.614Z,52.47
2017-08-28T20:05:24.800Z,54.09
2017-08-28T20:06:41.032Z,53.87
2017-08-28T20:07:53.738Z,53.8
2017-08-28T20:09:06.981Z,54.64
2017-08-28T20:10:19.691Z,55.49
2017-08-28T20:11:31.928Z,54.94
2017-08-28T20:12:44.092Z,55.06
2017-08-28T20:13:56.800Z,55.22
2017-08-28T20:15:10.015Z,55.13
2017-08-28T20:16:22.665Z,54.74
2017-08-28T20:17:35.363Z,57.07
2017-08-28T20:18:48.063Z,58.56
2017-08-28T20:20:01.253Z,59.5
2017-08-28T20:21:14.447Z,59.76
2017-08-28T20:22:27.685Z,60.21
2017-08-28T20:23:40.902Z,61.18
2017-08-28T20:24:54.106Z,62.24
2017-08-28T20:26:07.293Z,62.79
2017-08-28T20:27:19.976Z,62.7
2017-08-28T20:28:32.687Z,62.63
2017-08-28T20:29:45.399Z,62.44
2017-08-28T20:30:59.782Z,62.92
2017-08-28T20:32:13.009Z,63.21
2017-08-28T20:33:25.211Z,64.24
2017-08-28T20:34:38.428Z,64.21
2017-08-28T20:35:52.229Z,65.53
2017-08-28T20:37:04.863Z,65.82
2017-08-28T20:38:17.563Z,65.5
2017-08-28T20:39:30.785Z,65.69
2017-08-28T20:40:43.520Z,66.14
2017-08-28T20:41:56.759Z,66.33
2017-08-28T20:43:09.993Z,66.59
2017-08-28T20:44:23.187Z,68.52
2017-08-28T20:45:35.329Z,70.12
2017-08-28T20:46:48.562Z,71.37
2017-08-28T20:48:01.765Z,73.94
2017-08-28T20:49:13.953Z,77.88
2017-08-28T20:50:27.253Z,79.67
2017-08-28T20:51:39.428Z,81.6
2017-08-28T20:52:52.138Z,83.09
2017-08-28T20:54:04.816Z,84.83
2017-08-28T20:55:16.982Z,86.08
2017-08-28T20:56:29.688Z,87.81
2017-08-28T20:57:42.426Z,88.53
2017-08-28T20:58:55.619Z,90.65
2017-08-28T21:00:08.831Z,92.67
2017-08-28T21:01:21.027Z,93.77
2017-08-28T21:02:34.248Z,95.12
2017-08-28T21:03:46.415Z,95.98
2017-08-28T21:04:59.129Z,98.1
2017-08-28T21:06:11.855Z,98.68
2017-08-28T21:07:24.070Z,99.4
2017-08-28T21:08:36.257Z,99.99
2017-08-28T21:09:49.503Z,99.99
2017-08-28T21:11:02.232Z,99.99
2017-08-28T21:12:14.401Z,99.99
2017-08-28T21:13:26.076Z,99.99
2017-08-28T21:14:39.324Z,99.99
2017-08-28T21:15:52.041Z,99.99
2017-08-28T21:17:05.274Z,99.99
2017-08-28T21:18:17.450Z,99.99
2017-08-28T21:19:30.164Z,99.99
2017-08-28T21:20:42.323Z,99.99
2017-08-28T21:21:54.540Z,99.99
2017-08-28T21:23:06.732Z,99.99
2017-08-28T21:24:19.455Z,99.99
2017-08-28T21:25:31.625Z,99.99
2017-08-28T21:26:44.850Z,99.99
2017-08-28T21:27:57.537Z,99.99
2017-08-28T21:29:10.336Z,99.99
2017-08-28T21:30:23.082Z,99.99
2017-08-28T21:31:35.729Z,99.99
2017-08-28T21:32:47.909Z,99.99
2017-08-28T21:34:00.646Z,99.99
2017-08-28T21:35:13.341Z,99.99
2017-08-28T21:36:26.594Z,99.99
2017-08-28T21:37:39.839Z,99.99
2017-08-28T21:38:53.036Z,99.99
2017-08-28T21:40:06.238Z,99.99
2017-08-28T21:41:19.454Z,99.99
2017-08-28T21:42:32.166Z,99.99
2017-08-28T21:43:44.876Z,99.99
2017-08-28T21:44:57.599Z,99.99
2017-08-28T21:46:10.793Z,99.99
2017-08-28T21:47:23.007Z,99.99
2017-08-28T21:48:35.701Z,99.99
2017-08-28T21:49:48.914Z,99.99
2017-08-28T21:51:01.213Z,99.99
2017-08-28T21:52:13.921Z,99.99
2017-08-28T21:53:26.647Z,99.99
2017-08-28T21:54:39.871Z,99.99
2017-08-28T21:55:53.098Z,99.99
2017-08-28T21:57:05.813Z,99.99
2017-08-28T21:58:19.044Z,99.99
2017-08-28T21:59:32.274Z,99.99
2017-08-28T22:00:44.964Z,99.99
2017-08-28T22:01:58.191Z,99.99
2017-08-28T22:03:10.947Z,99.99
2017-08-28T22:04:24.176Z,99.99
2017-08-28T22:05:37.405Z,99.99
2017-08-28T22:06:50.197Z,99.99
2017-08-28T22:08:03.421Z,99.99
2017-08-28T22:09:16.123Z,99.99
2017-08-28T22:10:28.814Z,99.99
2017-08-28T22:11:42.627Z,99.99
2017-08-28T22:12:55.832Z,99.99
2017-08-28T22:14:09.060Z,99.99
2017-08-28T22:15:22.307Z,99.99
2017-08-28T22:16:35.031Z,99.99
2017-08-28T22:17:47.236Z,99.99
2017-08-28T22:19:01.110Z,99.99
2017-08-28T22:20:13.789Z,99.99
2017-08-28T22:21:27.097Z,99.99
2017-08-28T22:22:39.674Z,99.99
2017-08-28T22:23:51.307Z,99.99
2017-08-28T22:25:05.105Z,99.99
2017-08-28T22:26:17.824Z,99.99
2017-08-28T22:27:30.027Z,99.99
2017-08-28T22:28:43.849Z,99.99
2017-08-28T22:29:56.043Z,99.99
2017-08-28T22:31:09.159Z,99.99
2017-08-28T22:32:21.858Z,99.99
2017-08-28T22:33:35.002Z,99.99
2017-08-28T22:34:47.188Z,99.99
2017-08-28T22:36:01.026Z,99.99
2017-08-28T22:37:13.192Z,99.99
2017-08-28T22:38:25.880Z,99.99
2017-08-28T22:39:38.696Z,99.99
2017-08-28T22:40:51.871Z,99.99
2017-08-28T22:42:05.075Z,99.99
2017-08-28T22:43:17.848Z,99.99
2017-08-28T22:44:30.561Z,99.99
2017-08-28T22:45:42.687Z,99.99
2017-08-28T22:46:56.008Z,99.99
2017-08-28T22:48:08.686Z,99.99
2017-08-28T22:49:22.383Z,99.99
2017-08-28T22:50:34.020Z,99.99
2017-08-28T22:51:46.197Z,99.99
2017-08-28T22:52:58.898Z,99.99
2017-08-28T22:54:11.054Z,99.99
2017-08-28T22:55:24.185Z,99.99
2017-08-28T22:56:37.409Z,99.99
2017-08-28T22:57:50.581Z,99.99
2017-08-28T22:59:04.409Z,99.99
2017-08-28T23:00:17.607Z,99.99
2017-08-28T23:01:30.287Z,99.99
2017-08-28T23:02:42.966Z,99.99
2017-08-28T23:03:55.654Z,99.99
2017-08-28T23:05:07.833Z,99.99
2017-08-28T23:06:21.014Z,99.99
2017-08-28T23:07:34.197Z,99.99
2017-08-28T23:08:46.868Z,99.99
2017-08-28T23:10:00.056Z,99.99
2017-08-28T23:11:12.398Z,99.99
2017-08-28T23:12:25.109Z,99.99
2017-08-28T23:13:38.339Z,99.99
2017-08-28T23:14:50.493Z,99.99
2017-08-28T23:16:03.164Z,99.99
2017-08-28T23:17:14.832Z,99.99
2017-08-28T23:18:27.502Z,99.99
2017-08-28T23:19:39.224Z,99.99
2017-08-28T23:20:52.029Z,99.99
2017-08-28T23:22:04.664Z,99.99
2017-08-28T23:23:17.325Z,99.99
2017-08-28T23:24:30.499Z,99.99
2017-08-28T23:25:43.739Z,99.99
2017-08-28T23:26:56.955Z,99.99
2017-08-28T23:28:10.153Z,99.99
2017-08-28T23:29:23.388Z,99.99
2017-08-28T23:30:36.060Z,99.99
2017-08-28T23:31:48.229Z,99.99
2017-08-28T23:33:01.419Z,99.99
2017-08-28T23:34:14.628Z,99.99
2017-08-28T23:35:27.278Z,99.99
2017-08-28T23:36:40.476Z,99.99
2017-08-28T23:37:53.114Z,99.99
2017-08-28T23:39:06.349Z,99.99
2017-08-28T23:40:19.533Z,99.99
2017-08-28T23:41:32.217Z,99.99
2017-08-28T23:42:45.417Z,99.99
2017-08-28T23:43:59.250Z,99.99
2017-08-28T23:45:11.920Z,99.99
2017-08-28T23:46:23.551Z,99.99
2017-08-28T23:47:36.725Z,99.99
2017-08-28T23:48:48.912Z,99.99
2017-08-28T23:50:01.602Z,99.99
2017-08-28T23:51:14.306Z,99.99
2017-08-28T23:52:27.493Z,99.99
2017-08-28T23:53:40.710Z,99.99
2017-08-28T23:54:53.908Z,99.99
2017-08-28T23:56:07.083Z,99.99
2017-08-28T23:57:20.290Z,99.99
2017-08-28T23:58:32.970Z,99.99
2017-08-28T23:59:45.714Z,99.99
